sensor_id;sensor_type;location;lat;lon;timestamp;P1;durP1;ratioP1;P2;durP2;ratioP2
32633;SDS011;19043;51.012;5.648;2023-10-19T00:01:40;6.47;;;4.30;;
32633;SDS011;19043;51.012;5.648;2023-10-19T00:04:05;7.20;;;4.75;;
32633;SDS011;19043;51.012;5.648;2023-10-19T00:06:32;5.93;;;4.47;;
32633;SDS011;19043;51.012;5.648;2023-10-19T00:08:57;5.53;;;3.90;;
32633;SDS011;19043;51.012;5.648;2023-10-19T00:11:24;6.20;;;4.22;;
32633;SDS011;19043;51.012;5.648;2023-10-19T00:13:51;5.60;;;3.92;;
32633;SDS011;19043;51.012;5.648;2023-10-19T00:16:19;7.82;;;3.78;;
32633;SDS011;19043;51.012;5.648;2023-10-19T00:18:48;5.75;;;3.85;;
32633;SDS011;19043;51.012;5.648;2023-10-19T00:21:13;5.00;;;3.75;;
32633;SDS011;19043;51.012;5.648;2023-10-19T00:23:55;5.32;;;3.45;;
32633;SDS011;19043;51.012;5.648;2023-10-19T00:26:22;5.72;;;3.35;;
32633;SDS011;19043;51.012;5.648;2023-10-19T00:28:50;4.40;;;2.80;;
32633;SDS011;19043;51.012;5.648;2023-10-19T00:31:18;5.63;;;3.05;;
32633;SDS011;19043;51.012;5.648;2023-10-19T00:33:45;5.63;;;3.92;;
32633;SDS011;19043;51.012;5.648;2023-10-19T00:36:10;5.60;;;3.38;;
32633;SDS011;19043;51.012;5.648;2023-10-19T00:38:38;5.38;;;2.97;;
32633;SDS011;19043;51.012;5.648;2023-10-19T00:41:05;6.47;;;3.03;;
32633;SDS011;19043;51.012;5.648;2023-10-19T00:43:30;7.05;;;2.80;;
32633;SDS011;19043;51.012;5.648;2023-10-19T00:46:15;4.28;;;3.00;;
32633;SDS011;19043;51.012;5.648;2023-10-19T00:48:54;5.85;;;2.95;;
32633;SDS011;19043;51.012;5.648;2023-10-19T00:51:20;5.97;;;2.92;;
32633;SDS011;19043;51.012;5.648;2023-10-19T00:56:44;5.72;;;3.20;;
32633;SDS011;19043;51.012;5.648;2023-10-19T00:59:13;5.68;;;2.40;;
32633;SDS011;19043;51.012;5.648;2023-10-19T01:01:44;7.10;;;2.30;;
32633;SDS011;19043;51.012;5.648;2023-10-19T01:04:13;7.72;;;2.63;;
32633;SDS011;19043;51.012;5.648;2023-10-19T01:06:40;4.63;;;2.25;;
32633;SDS011;19043;51.012;5.648;2023-10-19T01:09:09;5.15;;;2.20;;
32633;SDS011;19043;51.012;5.648;2023-10-19T01:11:34;4.30;;;2.42;;
32633;SDS011;19043;51.012;5.648;2023-10-19T01:14:00;5.05;;;2.10;;
32633;SDS011;19043;51.012;5.648;2023-10-19T01:16:25;7.83;;;2.20;;
32633;SDS011;19043;51.012;5.648;2023-10-19T01:18:52;3.72;;;2.22;;
32633;SDS011;19043;51.012;5.648;2023-10-19T01:21:19;6.50;;;2.17;;
32633;SDS011;19043;51.012;5.648;2023-10-19T01:23:46;4.97;;;1.83;;
32633;SDS011;19043;51.012;5.648;2023-10-19T01:26:13;5.03;;;1.50;;
32633;SDS011;19043;51.012;5.648;2023-10-19T01:28:43;4.30;;;1.83;;
32633;SDS011;19043;51.012;5.648;2023-10-19T01:31:13;5.88;;;1.50;;
32633;SDS011;19043;51.012;5.648;2023-10-19T01:33:48;5.10;;;1.60;;
32633;SDS011;19043;51.012;5.648;2023-10-19T01:36:14;6.80;;;1.48;;
32633;SDS011;19043;51.012;5.648;2023-10-19T01:38:48;7.95;;;1.35;;
32633;SDS011;19043;51.012;5.648;2023-10-19T01:41:13;5.32;;;1.27;;
32633;SDS011;19043;51.012;5.648;2023-10-19T01:43:40;6.90;;;1.58;;
32633;SDS011;19043;51.012;5.648;2023-10-19T01:46:06;3.90;;;1.30;;
32633;SDS011;19043;51.012;5.648;2023-10-19T01:48:41;6.38;;;1.30;;
32633;SDS011;19043;51.012;5.648;2023-10-19T01:51:08;4.15;;;1.35;;
32633;SDS011;19043;51.012;5.648;2023-10-19T01:53:38;3.13;;;1.27;;
32633;SDS011;19043;51.012;5.648;2023-10-19T01:56:08;4.07;;;1.10;;
32633;SDS011;19043;51.012;5.648;2023-10-19T01:58:38;3.28;;;1.00;;
32633;SDS011;19043;51.012;5.648;2023-10-19T02:01:04;5.88;;;1.13;;
32633;SDS011;19043;51.012;5.648;2023-10-19T02:03:41;5.03;;;1.13;;
32633;SDS011;19043;51.012;5.648;2023-10-19T02:06:07;5.00;;;1.10;;
32633;SDS011;19043;51.012;5.648;2023-10-19T02:08:43;4.88;;;1.10;;
32633;SDS011;19043;51.012;5.648;2023-10-19T02:11:09;4.00;;;1.00;;
32633;SDS011;19043;51.012;5.648;2023-10-19T02:13:41;2.97;;;0.80;;
32633;SDS011;19043;51.012;5.648;2023-10-19T02:16:07;8.82;;;1.10;;
32633;SDS011;19043;51.012;5.648;2023-10-19T02:18:33;5.90;;;1.00;;
32633;SDS011;19043;51.012;5.648;2023-10-19T02:21:00;6.47;;;0.80;;
32633;SDS011;19043;51.012;5.648;2023-10-19T02:23:27;5.22;;;0.63;;
32633;SDS011;19043;51.012;5.648;2023-10-19T02:25:52;5.07;;;1.10;;
32633;SDS011;19043;51.012;5.648;2023-10-19T02:28:18;3.17;;;0.82;;
32633;SDS011;19043;51.012;5.648;2023-10-19T02:30:50;4.90;;;1.35;;
32633;SDS011;19043;51.012;5.648;2023-10-19T02:33:16;3.25;;;0.82;;
32633;SDS011;19043;51.012;5.648;2023-10-19T02:35:41;5.63;;;1.00;;
32633;SDS011;19043;51.012;5.648;2023-10-19T02:38:06;3.70;;;0.90;;
32633;SDS011;19043;51.012;5.648;2023-10-19T02:40:31;3.93;;;1.33;;
32633;SDS011;19043;51.012;5.648;2023-10-19T02:42:59;1.73;;;0.50;;
32633;SDS011;19043;51.012;5.648;2023-10-19T02:45:27;3.53;;;0.93;;
32633;SDS011;19043;51.012;5.648;2023-10-19T02:47:56;3.88;;;0.98;;
32633;SDS011;19043;51.012;5.648;2023-10-19T02:50:22;3.78;;;0.85;;
32633;SDS011;19043;51.012;5.648;2023-10-19T02:52:48;4.28;;;0.80;;
32633;SDS011;19043;51.012;5.648;2023-10-19T02:55:14;3.88;;;0.90;;
32633;SDS011;19043;51.012;5.648;2023-10-19T02:57:41;6.82;;;0.98;;
32633;SDS011;19043;51.012;5.648;2023-10-19T03:00:11;6.28;;;1.20;;
32633;SDS011;19043;51.012;5.648;2023-10-19T03:02:38;4.38;;;0.82;;
32633;SDS011;19043;51.012;5.648;2023-10-19T03:05:03;3.03;;;1.05;;
32633;SDS011;19043;51.012;5.648;2023-10-19T03:07:37;5.50;;;1.10;;
32633;SDS011;19043;51.012;5.648;2023-10-19T03:10:04;2.55;;;0.98;;
32633;SDS011;19043;51.012;5.648;2023-10-19T03:12:30;5.72;;;0.95;;
32633;SDS011;19043;51.012;5.648;2023-10-19T03:14:55;3.00;;;0.70;;
32633;SDS011;19043;51.012;5.648;2023-10-19T03:17:21;5.07;;;1.35;;
32633;SDS011;19043;51.012;5.648;2023-10-19T03:19:46;5.60;;;1.47;;
32633;SDS011;19043;51.012;5.648;2023-10-19T03:22:11;5.38;;;1.15;;
32633;SDS011;19043;51.012;5.648;2023-10-19T03:24:36;4.78;;;0.98;;
32633;SDS011;19043;51.012;5.648;2023-10-19T03:27:02;4.57;;;1.33;;
32633;SDS011;19043;51.012;5.648;2023-10-19T03:29:33;4.75;;;1.25;;
32633;SDS011;19043;51.012;5.648;2023-10-19T03:32:03;6.82;;;1.23;;
32633;SDS011;19043;51.012;5.648;2023-10-19T03:34:29;4.35;;;1.13;;
32633;SDS011;19043;51.012;5.648;2023-10-19T03:36:57;4.28;;;1.13;;
32633;SDS011;19043;51.012;5.648;2023-10-19T03:39:27;4.18;;;1.30;;
32633;SDS011;19043;51.012;5.648;2023-10-19T03:41:52;6.93;;;1.10;;
32633;SDS011;19043;51.012;5.648;2023-10-19T03:44:18;7.57;;;1.05;;
32633;SDS011;19043;51.012;5.648;2023-10-19T03:46:46;5.75;;;0.93;;
32633;SDS011;19043;51.012;5.648;2023-10-19T03:49:30;4.47;;;1.25;;
32633;SDS011;19043;51.012;5.648;2023-10-19T03:52:01;4.75;;;1.10;;
32633;SDS011;19043;51.012;5.648;2023-10-19T03:54:35;2.88;;;1.00;;
32633;SDS011;19043;51.012;5.648;2023-10-19T03:57:04;2.58;;;0.75;;
32633;SDS011;19043;51.012;5.648;2023-10-19T03:59:37;6.13;;;0.82;;
32633;SDS011;19043;51.012;5.648;2023-10-19T04:02:03;3.20;;;0.95;;
32633;SDS011;19043;51.012;5.648;2023-10-19T04:04:35;5.60;;;1.02;;
32633;SDS011;19043;51.012;5.648;2023-10-19T04:07:01;4.82;;;1.70;;
32633;SDS011;19043;51.012;5.648;2023-10-19T04:09:35;3.22;;;1.00;;
32633;SDS011;19043;51.012;5.648;2023-10-19T04:12:05;6.38;;;1.25;;
32633;SDS011;19043;51.012;5.648;2023-10-19T04:14:31;6.10;;;1.30;;
32633;SDS011;19043;51.012;5.648;2023-10-19T04:16:56;4.45;;;1.25;;
32633;SDS011;19043;51.012;5.648;2023-10-19T04:19:22;7.53;;;1.52;;
32633;SDS011;19043;51.012;5.648;2023-10-19T04:21:47;7.78;;;1.55;;
32633;SDS011;19043;51.012;5.648;2023-10-19T04:24:12;8.35;;;1.52;;
32633;SDS011;19043;51.012;5.648;2023-10-19T04:26:38;4.75;;;1.63;;
32633;SDS011;19043;51.012;5.648;2023-10-19T04:29:04;6.38;;;1.02;;
32633;SDS011;19043;51.012;5.648;2023-10-19T04:31:36;3.55;;;1.38;;
32633;SDS011;19043;51.012;5.648;2023-10-19T04:34:03;2.72;;;0.98;;
32633;SDS011;19043;51.012;5.648;2023-10-19T04:36:32;4.72;;;1.38;;
32633;SDS011;19043;51.012;5.648;2023-10-19T04:38:58;4.47;;;1.25;;
32633;SDS011;19043;51.012;5.648;2023-10-19T04:41:24;4.50;;;1.08;;
32633;SDS011;19043;51.012;5.648;2023-10-19T04:43:52;9.18;;;1.65;;
32633;SDS011;19043;51.012;5.648;2023-10-19T04:46:17;4.22;;;1.50;;
32633;SDS011;19043;51.012;5.648;2023-10-19T04:48:43;6.93;;;1.75;;
32633;SDS011;19043;51.012;5.648;2023-10-19T04:51:09;5.32;;;1.63;;
32633;SDS011;19043;51.012;5.648;2023-10-19T04:53:34;6.22;;;1.58;;
32633;SDS011;19043;51.012;5.648;2023-10-19T04:55:59;8.02;;;1.70;;
32633;SDS011;19043;51.012;5.648;2023-10-19T04:58:26;4.78;;;1.38;;
32633;SDS011;19043;51.012;5.648;2023-10-19T05:00:52;5.55;;;1.60;;
32633;SDS011;19043;51.012;5.648;2023-10-19T05:03:18;8.60;;;1.90;;
32633;SDS011;19043;51.012;5.648;2023-10-19T05:05:43;7.00;;;2.17;;
32633;SDS011;19043;51.012;5.648;2023-10-19T05:08:08;4.88;;;1.33;;
32633;SDS011;19043;51.012;5.648;2023-10-19T05:10:34;7.05;;;1.70;;
32633;SDS011;19043;51.012;5.648;2023-10-19T05:12:59;6.82;;;1.65;;
32633;SDS011;19043;51.012;5.648;2023-10-19T05:15:24;4.88;;;1.58;;
32633;SDS011;19043;51.012;5.648;2023-10-19T05:17:49;4.83;;;1.30;;
32633;SDS011;19043;51.012;5.648;2023-10-19T05:20:15;5.80;;;2.00;;
32633;SDS011;19043;51.012;5.648;2023-10-19T05:22:40;6.32;;;2.35;;
32633;SDS011;19043;51.012;5.648;2023-10-19T05:25:05;7.88;;;2.25;;
32633;SDS011;19043;51.012;5.648;2023-10-19T05:27:32;7.28;;;1.88;;
32633;SDS011;19043;51.012;5.648;2023-10-19T05:29:58;7.53;;;1.92;;
32633;SDS011;19043;51.012;5.648;2023-10-19T05:32:23;7.97;;;2.10;;
32633;SDS011;19043;51.012;5.648;2023-10-19T05:34:49;3.90;;;1.73;;
32633;SDS011;19043;51.012;5.648;2023-10-19T05:37:14;5.55;;;1.92;;
32633;SDS011;19043;51.012;5.648;2023-10-19T05:39:41;7.05;;;1.90;;
32633;SDS011;19043;51.012;5.648;2023-10-19T05:42:07;6.63;;;2.33;;
32633;SDS011;19043;51.012;5.648;2023-10-19T05:44:32;9.38;;;2.13;;
32633;SDS011;19043;51.012;5.648;2023-10-19T05:46:57;6.30;;;1.80;;
32633;SDS011;19043;51.012;5.648;2023-10-19T05:49:25;8.40;;;2.00;;
32633;SDS011;19043;51.012;5.648;2023-10-19T05:51:51;6.60;;;1.95;;
32633;SDS011;19043;51.012;5.648;2023-10-19T05:54:16;6.63;;;1.65;;
32633;SDS011;19043;51.012;5.648;2023-10-19T05:56:42;8.80;;;1.77;;
32633;SDS011;19043;51.012;5.648;2023-10-19T05:59:07;6.63;;;1.85;;
32633;SDS011;19043;51.012;5.648;2023-10-19T06:01:33;7.13;;;1.77;;
32633;SDS011;19043;51.012;5.648;2023-10-19T06:03:59;6.40;;;1.95;;
32633;SDS011;19043;51.012;5.648;2023-10-19T06:06:24;5.70;;;1.58;;
32633;SDS011;19043;51.012;5.648;2023-10-19T06:08:49;6.22;;;1.45;;
32633;SDS011;19043;51.012;5.648;2023-10-19T06:11:18;5.93;;;1.45;;
32633;SDS011;19043;51.012;5.648;2023-10-19T06:13:43;6.32;;;1.60;;
32633;SDS011;19043;51.012;5.648;2023-10-19T06:16:08;6.47;;;1.53;;
32633;SDS011;19043;51.012;5.648;2023-10-19T06:18:34;6.37;;;1.43;;
32633;SDS011;19043;51.012;5.648;2023-10-19T06:20:59;6.88;;;1.55;;
32633;SDS011;19043;51.012;5.648;2023-10-19T06:23:24;6.03;;;2.63;;
32633;SDS011;19043;51.012;5.648;2023-10-19T06:25:49;11.17;;;1.67;;
32633;SDS011;19043;51.012;5.648;2023-10-19T06:28:16;7.72;;;1.40;;
32633;SDS011;19043;51.012;5.648;2023-10-19T06:30:41;10.60;;;1.42;;
32633;SDS011;19043;51.012;5.648;2023-10-19T06:33:07;5.28;;;1.48;;
32633;SDS011;19043;51.012;5.648;2023-10-19T06:35:32;4.47;;;1.50;;
32633;SDS011;19043;51.012;5.648;2023-10-19T06:37:58;4.45;;;1.55;;
32633;SDS011;19043;51.012;5.648;2023-10-19T06:40:24;9.52;;;1.77;;
32633;SDS011;19043;51.012;5.648;2023-10-19T06:42:50;8.07;;;1.48;;
32633;SDS011;19043;51.012;5.648;2023-10-19T06:45:16;7.15;;;1.15;;
32633;SDS011;19043;51.012;5.648;2023-10-19T06:47:45;7.13;;;1.50;;
32633;SDS011;19043;51.012;5.648;2023-10-19T06:50:11;5.05;;;1.40;;
32633;SDS011;19043;51.012;5.648;2023-10-19T06:52:39;4.90;;;1.58;;
32633;SDS011;19043;51.012;5.648;2023-10-19T06:55:05;3.90;;;1.23;;
32633;SDS011;19043;51.012;5.648;2023-10-19T06:57:31;4.32;;;1.20;;
32633;SDS011;19043;51.012;5.648;2023-10-19T06:59:57;5.22;;;1.48;;
32633;SDS011;19043;51.012;5.648;2023-10-19T07:02:22;6.60;;;1.48;;
32633;SDS011;19043;51.012;5.648;2023-10-19T07:04:48;4.05;;;1.60;;
32633;SDS011;19043;51.012;5.648;2023-10-19T07:07:14;4.90;;;1.47;;
32633;SDS011;19043;51.012;5.648;2023-10-19T07:09:39;8.20;;;1.40;;
32633;SDS011;19043;51.012;5.648;2023-10-19T07:12:04;6.35;;;1.80;;
32633;SDS011;19043;51.012;5.648;2023-10-19T07:14:32;5.15;;;1.73;;
32633;SDS011;19043;51.012;5.648;2023-10-19T07:16:57;8.13;;;1.85;;
32633;SDS011;19043;51.012;5.648;2023-10-19T07:19:22;7.05;;;2.10;;
32633;SDS011;19043;51.012;5.648;2023-10-19T07:21:48;5.63;;;1.70;;
32633;SDS011;19043;51.012;5.648;2023-10-19T07:24:15;5.15;;;1.60;;
32633;SDS011;19043;51.012;5.648;2023-10-19T07:26:40;5.20;;;1.60;;
32633;SDS011;19043;51.012;5.648;2023-10-19T07:29:18;6.35;;;1.58;;
32633;SDS011;19043;51.012;5.648;2023-10-19T07:31:44;8.60;;;2.15;;
32633;SDS011;19043;51.012;5.648;2023-10-19T07:34:09;8.95;;;2.10;;
32633;SDS011;19043;51.012;5.648;2023-10-19T07:36:38;7.75;;;1.40;;
32633;SDS011;19043;51.012;5.648;2023-10-19T07:39:03;5.22;;;1.65;;
32633;SDS011;19043;51.012;5.648;2023-10-19T07:41:28;4.00;;;1.40;;
32633;SDS011;19043;51.012;5.648;2023-10-19T07:43:59;4.40;;;1.70;;
32633;SDS011;19043;51.012;5.648;2023-10-19T07:46:24;7.30;;;2.17;;
32633;SDS011;19043;51.012;5.648;2023-10-19T07:48:50;6.60;;;1.90;;
32633;SDS011;19043;51.012;5.648;2023-10-19T07:51:17;6.18;;;1.50;;
32633;SDS011;19043;51.012;5.648;2023-10-19T07:53:43;7.40;;;1.83;;
32633;SDS011;19043;51.012;5.648;2023-10-19T07:56:09;4.53;;;1.73;;
32633;SDS011;19043;51.012;5.648;2023-10-19T07:58:34;7.05;;;1.95;;
32633;SDS011;19043;51.012;5.648;2023-10-19T08:00:59;3.50;;;1.37;;
32633;SDS011;19043;51.012;5.648;2023-10-19T08:03:26;7.32;;;2.10;;
32633;SDS011;19043;51.012;5.648;2023-10-19T08:05:51;11.55;;;2.38;;
32633;SDS011;19043;51.012;5.648;2023-10-19T08:08:17;5.53;;;2.17;;
32633;SDS011;19043;51.012;5.648;2023-10-19T08:10:42;3.72;;;1.95;;
32633;SDS011;19043;51.012;5.648;2023-10-19T08:13:08;8.52;;;1.80;;
32633;SDS011;19043;51.012;5.648;2023-10-19T08:15:33;10.87;;;2.00;;
32633;SDS011;19043;51.012;5.648;2023-10-19T08:17:58;8.80;;;2.03;;
32633;SDS011;19043;51.012;5.648;2023-10-19T08:20:23;9.35;;;2.30;;
32633;SDS011;19043;51.012;5.648;2023-10-19T08:22:50;6.75;;;1.73;;
32633;SDS011;19043;51.012;5.648;2023-10-19T08:25:15;7.00;;;1.88;;
32633;SDS011;19043;51.012;5.648;2023-10-19T08:27:44;8.70;;;2.00;;
32633;SDS011;19043;51.012;5.648;2023-10-19T08:30:17;10.60;;;2.30;;
32633;SDS011;19043;51.012;5.648;2023-10-19T08:32:43;4.63;;;2.00;;
32633;SDS011;19043;51.012;5.648;2023-10-19T08:35:08;8.05;;;2.45;;
32633;SDS011;19043;51.012;5.648;2023-10-19T08:37:38;6.88;;;2.13;;
32633;SDS011;19043;51.012;5.648;2023-10-19T08:40:04;6.38;;;1.48;;
32633;SDS011;19043;51.012;5.648;2023-10-19T08:42:31;6.72;;;2.17;;
32633;SDS011;19043;51.012;5.648;2023-10-19T08:44:56;8.95;;;2.08;;
32633;SDS011;19043;51.012;5.648;2023-10-19T08:47:24;12.63;;;2.03;;
32633;SDS011;19043;51.012;5.648;2023-10-19T08:49:51;5.82;;;1.70;;
32633;SDS011;19043;51.012;5.648;2023-10-19T08:52:16;9.90;;;2.20;;
32633;SDS011;19043;51.012;5.648;2023-10-19T08:54:42;10.63;;;2.13;;
32633;SDS011;19043;51.012;5.648;2023-10-19T08:57:08;6.32;;;1.67;;
32633;SDS011;19043;51.012;5.648;2023-10-19T08:59:34;7.40;;;2.13;;
32633;SDS011;19043;51.012;5.648;2023-10-19T09:02:03;7.53;;;1.40;;
32633;SDS011;19043;51.012;5.648;2023-10-19T09:04:31;7.10;;;1.73;;
32633;SDS011;19043;51.012;5.648;2023-10-19T09:06:56;8.60;;;1.70;;
32633;SDS011;19043;51.012;5.648;2023-10-19T09:09:21;5.83;;;2.00;;
32633;SDS011;19043;51.012;5.648;2023-10-19T09:11:50;8.68;;;1.77;;
32633;SDS011;19043;51.012;5.648;2023-10-19T09:14:15;3.88;;;1.45;;
32633;SDS011;19043;51.012;5.648;2023-10-19T09:16:58;8.98;;;2.20;;
32633;SDS011;19043;51.012;5.648;2023-10-19T09:19:42;7.10;;;1.98;;
32633;SDS011;19043;51.012;5.648;2023-10-19T09:22:08;10.80;;;2.42;;
32633;SDS011;19043;51.012;5.648;2023-10-19T09:24:41;6.85;;;1.90;;
32633;SDS011;19043;51.012;5.648;2023-10-19T09:27:07;10.07;;;2.53;;
32633;SDS011;19043;51.012;5.648;2023-10-19T09:29:33;14.18;;;2.00;;
32633;SDS011;19043;51.012;5.648;2023-10-19T09:31:58;9.67;;;1.67;;
32633;SDS011;19043;51.012;5.648;2023-10-19T09:34:27;7.43;;;2.00;;
32633;SDS011;19043;51.012;5.648;2023-10-19T09:36:57;9.68;;;2.00;;
32633;SDS011;19043;51.012;5.648;2023-10-19T09:39:22;8.70;;;2.05;;
32633;SDS011;19043;51.012;5.648;2023-10-19T09:41:49;10.45;;;2.30;;
32633;SDS011;19043;51.012;5.648;2023-10-19T09:44:15;12.20;;;2.47;;
32633;SDS011;19043;51.012;5.648;2023-10-19T09:46:43;11.10;;;2.33;;
32633;SDS011;19043;51.012;5.648;2023-10-19T09:49:10;9.05;;;2.10;;
32633;SDS011;19043;51.012;5.648;2023-10-19T09:51:38;7.93;;;2.17;;
32633;SDS011;19043;51.012;5.648;2023-10-19T09:54:26;9.50;;;2.63;;
32633;SDS011;19043;51.012;5.648;2023-10-19T09:56:55;9.63;;;2.50;;
32633;SDS011;19043;51.012;5.648;2023-10-19T09:59:32;6.50;;;2.33;;
32633;SDS011;19043;51.012;5.648;2023-10-19T10:04:30;8.50;;;2.33;;
32633;SDS011;19043;51.012;5.648;2023-10-19T10:09:21;11.50;;;2.80;;
32633;SDS011;19043;51.012;5.648;2023-10-19T10:11:50;8.77;;;2.30;;
32633;SDS011;19043;51.012;5.648;2023-10-19T10:14:24;10.88;;;2.00;;
32633;SDS011;19043;51.012;5.648;2023-10-19T10:17:03;10.35;;;2.08;;
32633;SDS011;19043;51.012;5.648;2023-10-19T10:19:28;9.27;;;1.80;;
32633;SDS011;19043;51.012;5.648;2023-10-19T10:22:03;7.50;;;2.03;;
32633;SDS011;19043;51.012;5.648;2023-10-19T10:24:30;6.18;;;1.67;;
32633;SDS011;19043;51.012;5.648;2023-10-19T10:26:59;6.05;;;1.60;;
32633;SDS011;19043;51.012;5.648;2023-10-19T10:29:28;6.85;;;1.77;;
32633;SDS011;19043;51.012;5.648;2023-10-19T10:31:54;7.90;;;1.73;;
32633;SDS011;19043;51.012;5.648;2023-10-19T10:37:00;7.47;;;1.50;;
32633;SDS011;19043;51.012;5.648;2023-10-19T10:39:27;7.57;;;2.20;;
32633;SDS011;19043;51.012;5.648;2023-10-19T10:41:56;8.10;;;1.63;;
32633;SDS011;19043;51.012;5.648;2023-10-19T10:44:34;8.57;;;2.35;;
32633;SDS011;19043;51.012;5.648;2023-10-19T10:47:00;7.78;;;1.80;;
32633;SDS011;19043;51.012;5.648;2023-10-19T10:49:25;6.80;;;1.52;;
32633;SDS011;19043;51.012;5.648;2023-10-19T10:51:50;9.25;;;2.97;;
32633;SDS011;19043;51.012;5.648;2023-10-19T10:54:20;9.73;;;2.25;;
32633;SDS011;19043;51.012;5.648;2023-10-19T10:56:46;9.63;;;2.00;;
32633;SDS011;19043;51.012;5.648;2023-10-19T10:59:14;12.80;;;2.45;;
32633;SDS011;19043;51.012;5.648;2023-10-19T11:01:39;10.85;;;2.47;;
32633;SDS011;19043;51.012;5.648;2023-10-19T11:04:10;7.55;;;1.92;;
32633;SDS011;19043;51.012;5.648;2023-10-19T11:06:48;7.40;;;2.13;;
32633;SDS011;19043;51.012;5.648;2023-10-19T11:09:14;9.18;;;2.28;;
32633;SDS011;19043;51.012;5.648;2023-10-19T11:11:43;8.25;;;2.00;;
32633;SDS011;19043;51.012;5.648;2023-10-19T11:14:09;8.18;;;2.20;;
32633;SDS011;19043;51.012;5.648;2023-10-19T11:16:36;7.95;;;1.80;;
32633;SDS011;19043;51.012;5.648;2023-10-19T11:19:02;7.68;;;2.38;;
32633;SDS011;19043;51.012;5.648;2023-10-19T11:21:27;14.63;;;2.05;;
32633;SDS011;19043;51.012;5.648;2023-10-19T11:23:53;6.68;;;2.20;;
32633;SDS011;19043;51.012;5.648;2023-10-19T11:26:21;6.30;;;2.13;;
32633;SDS011;19043;51.012;5.648;2023-10-19T11:28:47;7.15;;;1.77;;
32633;SDS011;19043;51.012;5.648;2023-10-19T11:31:21;5.45;;;1.40;;
32633;SDS011;19043;51.012;5.648;2023-10-19T11:33:52;9.43;;;2.25;;
32633;SDS011;19043;51.012;5.648;2023-10-19T11:36:18;9.00;;;2.25;;
32633;SDS011;19043;51.012;5.648;2023-10-19T11:38:44;8.35;;;2.65;;
32633;SDS011;19043;51.012;5.648;2023-10-19T11:41:13;6.07;;;1.75;;
32633;SDS011;19043;51.012;5.648;2023-10-19T11:43:42;6.28;;;1.80;;
32633;SDS011;19043;51.012;5.648;2023-10-19T11:46:08;7.18;;;2.30;;
32633;SDS011;19043;51.012;5.648;2023-10-19T11:48:33;6.68;;;1.98;;
32633;SDS011;19043;51.012;5.648;2023-10-19T11:51:00;5.32;;;1.65;;
32633;SDS011;19043;51.012;5.648;2023-10-19T11:53:29;10.00;;;1.80;;
32633;SDS011;19043;51.012;5.648;2023-10-19T11:55:58;8.50;;;1.95;;
32633;SDS011;19043;51.012;5.648;2023-10-19T11:58:23;6.03;;;1.38;;
32633;SDS011;19043;51.012;5.648;2023-10-19T12:00:48;5.25;;;1.48;;
32633;SDS011;19043;51.012;5.648;2023-10-19T12:03:13;8.07;;;1.73;;
32633;SDS011;19043;51.012;5.648;2023-10-19T12:05:39;12.20;;;2.05;;
32633;SDS011;19043;51.012;5.648;2023-10-19T12:08:07;8.25;;;2.20;;
32633;SDS011;19043;51.012;5.648;2023-10-19T12:10:32;5.93;;;2.03;;
32633;SDS011;19043;51.012;5.648;2023-10-19T12:13:00;8.98;;;1.65;;
32633;SDS011;19043;51.012;5.648;2023-10-19T12:15:26;3.50;;;1.35;;
32633;SDS011;19043;51.012;5.648;2023-10-19T12:17:52;6.38;;;2.08;;
32633;SDS011;19043;51.012;5.648;2023-10-19T12:20:19;6.75;;;1.60;;
32633;SDS011;19043;51.012;5.648;2023-10-19T12:22:47;5.28;;;1.35;;
32633;SDS011;19043;51.012;5.648;2023-10-19T12:25:12;4.07;;;1.40;;
32633;SDS011;19043;51.012;5.648;2023-10-19T12:27:38;7.15;;;1.40;;
32633;SDS011;19043;51.012;5.648;2023-10-19T12:30:03;4.70;;;1.40;;
32633;SDS011;19043;51.012;5.648;2023-10-19T12:32:38;6.57;;;1.40;;
32633;SDS011;19043;51.012;5.648;2023-10-19T12:35:03;7.77;;;1.47;;
32633;SDS011;19043;51.012;5.648;2023-10-19T12:37:36;4.93;;;1.10;;
32633;SDS011;19043;51.012;5.648;2023-10-19T12:40:06;5.88;;;1.40;;
32633;SDS011;19043;51.012;5.648;2023-10-19T12:42:51;8.60;;;1.52;;
32633;SDS011;19043;51.012;5.648;2023-10-19T12:45:17;7.13;;;1.65;;
32633;SDS011;19043;51.012;5.648;2023-10-19T12:47:44;6.88;;;1.25;;
32633;SDS011;19043;51.012;5.648;2023-10-19T12:50:10;5.45;;;1.75;;
32633;SDS011;19043;51.012;5.648;2023-10-19T12:52:38;6.20;;;1.23;;
32633;SDS011;19043;51.012;5.648;2023-10-19T12:55:05;7.78;;;1.27;;
32633;SDS011;19043;51.012;5.648;2023-10-19T12:57:31;6.75;;;1.42;;
32633;SDS011;19043;51.012;5.648;2023-10-19T12:59:57;5.93;;;1.55;;
32633;SDS011;19043;51.012;5.648;2023-10-19T13:02:22;7.65;;;1.60;;
32633;SDS011;19043;51.012;5.648;2023-10-19T13:04:49;5.13;;;1.40;;
32633;SDS011;19043;51.012;5.648;2023-10-19T13:07:14;8.20;;;1.65;;
32633;SDS011;19043;51.012;5.648;2023-10-19T13:09:39;6.97;;;1.33;;
32633;SDS011;19043;51.012;5.648;2023-10-19T13:12:05;6.85;;;1.50;;
32633;SDS011;19043;51.012;5.648;2023-10-19T13:14:32;7.97;;;1.60;;
32633;SDS011;19043;51.012;5.648;2023-10-19T13:16:59;7.88;;;1.88;;
32633;SDS011;19043;51.012;5.648;2023-10-19T13:19:24;6.10;;;2.08;;
32633;SDS011;19043;51.012;5.648;2023-10-19T13:21:50;7.85;;;2.20;;
32633;SDS011;19043;51.012;5.648;2023-10-19T13:24:17;4.47;;;1.83;;
32633;SDS011;19043;51.012;5.648;2023-10-19T13:26:42;5.47;;;2.00;;
32633;SDS011;19043;51.012;5.648;2023-10-19T13:29:11;6.50;;;2.10;;
32633;SDS011;19043;51.012;5.648;2023-10-19T13:31:37;9.07;;;2.08;;
32633;SDS011;19043;51.012;5.648;2023-10-19T13:34:02;8.60;;;2.22;;
32633;SDS011;19043;51.012;5.648;2023-10-19T13:36:28;7.90;;;2.42;;
32633;SDS011;19043;51.012;5.648;2023-10-19T13:38:53;9.15;;;2.40;;
32633;SDS011;19043;51.012;5.648;2023-10-19T13:41:19;8.27;;;2.60;;
32633;SDS011;19043;51.012;5.648;2023-10-19T13:43:45;5.78;;;2.03;;
32633;SDS011;19043;51.012;5.648;2023-10-19T13:46:12;7.60;;;2.42;;
32633;SDS011;19043;51.012;5.648;2023-10-19T13:48:37;7.72;;;2.50;;
32633;SDS011;19043;51.012;5.648;2023-10-19T13:51:04;4.90;;;2.45;;
32633;SDS011;19043;51.012;5.648;2023-10-19T13:53:40;5.60;;;2.40;;
32633;SDS011;19043;51.012;5.648;2023-10-19T13:56:08;6.95;;;2.10;;
32633;SDS011;19043;51.012;5.648;2023-10-19T13:58:36;13.45;;;2.50;;
32633;SDS011;19043;51.012;5.648;2023-10-19T14:01:02;7.88;;;2.40;;
32633;SDS011;19043;51.012;5.648;2023-10-19T14:03:28;5.22;;;2.15;;
32633;SDS011;19043;51.012;5.648;2023-10-19T14:05:55;9.45;;;2.50;;
32633;SDS011;19043;51.012;5.648;2023-10-19T14:08:21;6.28;;;2.38;;
32633;SDS011;19043;51.012;5.648;2023-10-19T14:10:47;6.18;;;2.55;;
32633;SDS011;19043;51.012;5.648;2023-10-19T14:13:12;7.45;;;2.80;;
32633;SDS011;19043;51.012;5.648;2023-10-19T14:15:38;6.38;;;2.95;;
32633;SDS011;19043;51.012;5.648;2023-10-19T14:18:04;5.65;;;2.38;;
32633;SDS011;19043;51.012;5.648;2023-10-19T14:20:30;4.40;;;2.42;;
32633;SDS011;19043;51.012;5.648;2023-10-19T14:22:56;5.28;;;2.28;;
32633;SDS011;19043;51.012;5.648;2023-10-19T14:25:22;5.53;;;2.00;;
32633;SDS011;19043;51.012;5.648;2023-10-19T14:27:51;6.50;;;1.52;;
32633;SDS011;19043;51.012;5.648;2023-10-19T14:30:22;4.70;;;1.25;;
32633;SDS011;19043;51.012;5.648;2023-10-19T14:32:48;5.22;;;1.48;;
32633;SDS011;19043;51.012;5.648;2023-10-19T14:35:14;5.68;;;1.67;;
32633;SDS011;19043;51.012;5.648;2023-10-19T14:37:43;4.30;;;1.10;;
32633;SDS011;19043;51.012;5.648;2023-10-19T14:40:08;4.57;;;1.33;;
32633;SDS011;19043;51.012;5.648;2023-10-19T14:42:37;4.43;;;1.40;;
32633;SDS011;19043;51.012;5.648;2023-10-19T14:45:07;3.88;;;1.45;;
32633;SDS011;19043;51.012;5.648;2023-10-19T14:47:34;4.25;;;1.70;;
32633;SDS011;19043;51.012;5.648;2023-10-19T14:50:00;3.38;;;1.40;;
32633;SDS011;19043;51.012;5.648;2023-10-19T14:52:25;4.83;;;1.40;;
32633;SDS011;19043;51.012;5.648;2023-10-19T14:54:50;4.60;;;1.50;;
32633;SDS011;19043;51.012;5.648;2023-10-19T14:57:16;5.45;;;1.83;;
32633;SDS011;19043;51.012;5.648;2023-10-19T14:59:41;3.25;;;1.70;;